Sign-in with your pilot id or email

Flight HFY46

  • Submitted By: Joćo Robalo
  • Departure Airport: Lisboa / Portela (LPPT)
  • Arrival Airport: Marrakesh Menara Airport (GMMX)
  • Aircraft: CL-600 (N3746)
  • Flight Time: 1.11
  • Date Submitted: 10/08/2015
  • Route: TROIA DCT VFA DCT GIMAL DCT AMSEL UR722 CBA UW900 SLK UZ701 VALBA DCT OBOGA
  • Status: Accepted
Flight Details
Gross Revenue:
(9 load / € 158.57 per unit
€ 1, 427.13
Fuel Cost:
(1373 fuel used @ 5.1 / unit)
€ 7, 002.30

Additional Log Information:

View Log

[2015/08/10 15:41:00]
Flight IATA:HFY46
Pilot Number:HFY0048
Company ICAO:HFY
Aircraft Type:CL-600
Aircraft Registration:N3746
Departing Airport: LPPT
Destination Airport: GMMX
Alternate Airport:GMME
Online: IVAO
Route:TROIA DCT VFA DCT GIMAL DCT AMSEL UR722 CBA UW900 SLK UZ701 VALBA DCT OBOGA
Flight Level:32000
15:41 Zero fuel Weight: 26318 Kg, Fuel Weight: 2972 Kg
15:41 VATSIM:LPPT 101530Z 31011KT 270V330 CAVOK 30/14 Q1014
15:41 VATSIM:GMMX 101530Z VRB04KT 9999 SCT033 FEW040CB SCT100 37/17 Q1017 NOSIG
15:42 Parking Brakes off
15:42 Com1 Freq=122.80
15:47 VR= 126 Knots
15:47 V2= 141 Knots
15:47 Take-off
15:47 Take off Weight: 29229 Kg
15:47 Wind: 279? @ 008 Knots Heading: 205?
15:47 POS N38? 46? 36?? W009? 08? 17??
15:47 N11 105 N12 105
15:47 Flaps:2 at 148 Knots
15:47 Gear Up: 152 Knots
15:47 Flaps:1 at 193 Knots
16:02 Wind:343?@014 Knots Heading: 151? Ground Speed: 461 Knots Altitude 30577 ft
16:02 TOC
16:02 Fuel Weight: 2529 Kg
16:17 Wind:337?@012 Knots Heading: 182? Ground Speed: 492 Knots Altitude 33720 ft
16:32 Wind:268?@006 Knots Heading: 182? Ground Speed: 487 Knots Altitude 33776 ft
16:41 TOD
16:41 Fuel Weight: 1669 Kg
16:41 Flaps:0 at 279 Knots
16:47 Wind:298?@013 Knots Heading: 183? Ground Speed: 319 Knots Altitude 15075 ft
16:49 Flaps:1 at 234 Knots
16:50 Flaps:2 at 216 Knots
16:50 Flaps:3 at 178 Knots
16:50 Gear Down: 177 Knots
16:50 Flaps:4 at 171 Knots
16:50 Flaps:5 at 149 Knots
16:52 TouchDown:Rate -42 ft/min Speed: 115 Knots
16:53 VATSIM:GMMX 101630Z 16003KT 090V220 9999 SCT033 FEW040CB SCT100 37/17 Q1017 NOSIG
16:53 Land
16:53 Wind:299?@003 Knots
16:53 Heading: 275?
16:53 Flight Duration: 01:06
16:53 Landing Weight: 27922 Kg
16:53 POS N31? 36? 25?? W008? 02? 20??
16:53 Parking brakes on
16:53 Block to Block Duration: 01:11
16:53 Final Fuel: 1599 Kg
16:53 Spent Fuel: 1373 Kg
16:53 Flight Length: 462 NM
16:53 TOD Land Length: 57 NM

Route Map